sensor_id;sensor_type;location;lat;lon;timestamp;temperature;humidity
2783;DHT22;1399;47.072;15.452;2023-05-29T00:00:48;18.00;58.40
2783;DHT22;1399;47.072;15.452;2023-05-29T00:03:13;17.90;58.50
2783;DHT22;1399;47.072;15.452;2023-05-29T00:05:39;17.90;58.60
2783;DHT22;1399;47.072;15.452;2023-05-29T00:08:05;17.90;58.70
2783;DHT22;1399;47.072;15.452;2023-05-29T00:10:32;17.80;58.80
2783;DHT22;1399;47.072;15.452;2023-05-29T00:12:58;17.90;59.00
2783;DHT22;1399;47.072;15.452;2023-05-29T00:15:26;17.80;59.00
2783;DHT22;1399;47.072;15.452;2023-05-29T00:17:52;17.80;59.20
2783;DHT22;1399;47.072;15.452;2023-05-29T00:20:18;17.80;59.30
2783;DHT22;1399;47.072;15.452;2023-05-29T00:22:43;17.80;59.50
2783;DHT22;1399;47.072;15.452;2023-05-29T00:25:09;17.70;59.50
2783;DHT22;1399;47.072;15.452;2023-05-29T00:27:35;17.70;59.70
2783;DHT22;1399;47.072;15.452;2023-05-29T00:30:01;17.70;59.80
2783;DHT22;1399;47.072;15.452;2023-05-29T00:32:28;17.70;59.90
2783;DHT22;1399;47.072;15.452;2023-05-29T00:34:54;17.60;60.00
2783;DHT22;1399;47.072;15.452;2023-05-29T00:37:21;17.60;60.10
2783;DHT22;1399;47.072;15.452;2023-05-29T00:39:48;17.60;60.30
2783;DHT22;1399;47.072;15.452;2023-05-29T00:42:13;17.60;60.40
2783;DHT22;1399;47.072;15.452;2023-05-29T00:44:39;17.60;60.50
2783;DHT22;1399;47.072;15.452;2023-05-29T00:47:05;17.60;60.70
2783;DHT22;1399;47.072;15.452;2023-05-29T00:49:32;17.50;60.70
2783;DHT22;1399;47.072;15.452;2023-05-29T00:51:59;17.50;60.90
2783;DHT22;1399;47.072;15.452;2023-05-29T00:54:29;17.50;61.00
2783;DHT22;1399;47.072;15.452;2023-05-29T00:56:59;17.50;61.00
2783;DHT22;1399;47.072;15.452;2023-05-29T00:59:29;17.50;61.10
2783;DHT22;1399;47.072;15.452;2023-05-29T01:01:57;17.50;61.10
2783;DHT22;1399;47.072;15.452;2023-05-29T01:04:25;17.50;61.20
2783;DHT22;1399;47.072;15.452;2023-05-29T01:06:51;17.50;61.20
2783;DHT22;1399;47.072;15.452;2023-05-29T01:09:17;17.50;61.30
2783;DHT22;1399;47.072;15.452;2023-05-29T01:12:49;17.50;61.40
2783;DHT22;1399;47.072;15.452;2023-05-29T01:28:17;17.40;62.00
2783;DHT22;1399;47.072;15.452;2023-05-29T01:30:45;17.40;62.10
2783;DHT22;1399;47.072;15.452;2023-05-29T01:33:12;17.40;62.20
2783;DHT22;1399;47.072;15.452;2023-05-29T01:35:38;17.40;62.30
2783;DHT22;1399;47.072;15.452;2023-05-29T01:38:03;17.40;62.40
2783;DHT22;1399;47.072;15.452;2023-05-29T01:40:29;17.30;62.40
2783;DHT22;1399;47.072;15.452;2023-05-29T01:42:56;17.30;62.60
2783;DHT22;1399;47.072;15.452;2023-05-29T01:45:22;17.30;62.60
2783;DHT22;1399;47.072;15.452;2023-05-29T01:47:47;17.30;62.70
2783;DHT22;1399;47.072;15.452;2023-05-29T01:50:15;17.20;62.70
2783;DHT22;1399;47.072;15.452;2023-05-29T01:52:43;17.20;62.90
2783;DHT22;1399;47.072;15.452;2023-05-29T01:55:09;17.20;63.00
2783;DHT22;1399;47.072;15.452;2023-05-29T01:57:36;17.20;63.10
2783;DHT22;1399;47.072;15.452;2023-05-29T02:00:03;17.10;63.10
2783;DHT22;1399;47.072;15.452;2023-05-29T02:02:40;17.10;63.20
2783;DHT22;1399;47.072;15.452;2023-05-29T02:05:07;17.10;63.50
2783;DHT22;1399;47.072;15.452;2023-05-29T02:07:34;17.10;63.60
2783;DHT22;1399;47.072;15.452;2023-05-29T02:10:03;17.00;63.70
2783;DHT22;1399;47.072;15.452;2023-05-29T02:12:29;17.00;63.90
2783;DHT22;1399;47.072;15.452;2023-05-29T02:14:55;17.00;64.00
2783;DHT22;1399;47.072;15.452;2023-05-29T02:17:23;17.00;64.10
2783;DHT22;1399;47.072;15.452;2023-05-29T02:19:50;17.00;64.30
2783;DHT22;1399;47.072;15.452;2023-05-29T02:22:17;16.90;64.30
2783;DHT22;1399;47.072;15.452;2023-05-29T02:24:43;16.90;65.40
2783;DHT22;1399;47.072;15.452;2023-05-29T02:27:09;16.90;64.70
2783;DHT22;1399;47.072;15.452;2023-05-29T02:29:34;16.90;65.00
2783;DHT22;1399;47.072;15.452;2023-05-29T02:32:00;16.90;66.00
2783;DHT22;1399;47.072;15.452;2023-05-29T02:34:26;16.80;65.30
2783;DHT22;1399;47.072;15.452;2023-05-29T02:36:52;16.80;65.40
2783;DHT22;1399;47.072;15.452;2023-05-29T02:39:18;16.80;65.60
2783;DHT22;1399;47.072;15.452;2023-05-29T02:41:44;16.80;65.80
2783;DHT22;1399;47.072;15.452;2023-05-29T02:44:10;16.70;65.80
2783;DHT22;1399;47.072;15.452;2023-05-29T02:46:36;16.70;65.90
2783;DHT22;1399;47.072;15.452;2023-05-29T02:49:02;16.70;66.10
2783;DHT22;1399;47.072;15.452;2023-05-29T02:51:28;16.70;67.10
2783;DHT22;1399;47.072;15.452;2023-05-29T02:53:53;16.70;66.40
2783;DHT22;1399;47.072;15.452;2023-05-29T02:56:19;16.70;66.50
2783;DHT22;1399;47.072;15.452;2023-05-29T02:58:52;16.60;66.40
2783;DHT22;1399;47.072;15.452;2023-05-29T03:01:19;16.60;66.60
2783;DHT22;1399;47.072;15.452;2023-05-29T03:03:45;16.60;66.60
2783;DHT22;1399;47.072;15.452;2023-05-29T03:06:11;16.50;66.60
2783;DHT22;1399;47.072;15.452;2023-05-29T03:08:38;16.60;66.80
2783;DHT22;1399;47.072;15.452;2023-05-29T03:11:10;16.60;67.40
2783;DHT22;1399;47.072;15.452;2023-05-29T03:13:37;16.50;67.70
2783;DHT22;1399;47.072;15.452;2023-05-29T03:16:03;16.50;66.90
2783;DHT22;1399;47.072;15.452;2023-05-29T03:18:29;16.50;66.90
2783;DHT22;1399;47.072;15.452;2023-05-29T03:20:55;16.50;67.00
2783;DHT22;1399;47.072;15.452;2023-05-29T03:23:21;16.50;67.00
2783;DHT22;1399;47.072;15.452;2023-05-29T03:25:46;16.50;67.00
2783;DHT22;1399;47.072;15.452;2023-05-29T03:28:12;16.50;67.00
2783;DHT22;1399;47.072;15.452;2023-05-29T03:30:38;16.50;67.00
2783;DHT22;1399;47.072;15.452;2023-05-29T03:33:03;16.40;66.90
2783;DHT22;1399;47.072;15.452;2023-05-29T03:35:29;16.40;66.80
2783;DHT22;1399;47.072;15.452;2023-05-29T03:37:55;16.50;66.90
2783;DHT22;1399;47.072;15.452;2023-05-29T03:40:21;16.40;66.70
2783;DHT22;1399;47.072;15.452;2023-05-29T03:42:47;16.40;66.70
2783;DHT22;1399;47.072;15.452;2023-05-29T03:45:12;16.40;66.70
2783;DHT22;1399;47.072;15.452;2023-05-29T03:47:38;16.40;66.60
2783;DHT22;1399;47.072;15.452;2023-05-29T03:50:04;16.40;66.40
2783;DHT22;1399;47.072;15.452;2023-05-29T03:52:30;16.40;66.40
2783;DHT22;1399;47.072;15.452;2023-05-29T03:54:56;16.50;66.40
2783;DHT22;1399;47.072;15.452;2023-05-29T03:57:21;16.50;66.40
2783;DHT22;1399;47.072;15.452;2023-05-29T03:59:47;16.50;66.30
2783;DHT22;1399;47.072;15.452;2023-05-29T04:02:13;16.50;66.30
2783;DHT22;1399;47.072;15.452;2023-05-29T04:04:39;16.50;66.20
2783;DHT22;1399;47.072;15.452;2023-05-29T04:07:08;16.50;66.30
2783;DHT22;1399;47.072;15.452;2023-05-29T04:09:34;16.50;66.20
2783;DHT22;1399;47.072;15.452;2023-05-29T04:12:00;16.50;66.10
2783;DHT22;1399;47.072;15.452;2023-05-29T04:14:28;16.50;66.10
2783;DHT22;1399;47.072;15.452;2023-05-29T04:16:54;16.60;66.20
2783;DHT22;1399;47.072;15.452;2023-05-29T04:19:20;16.60;66.10
2783;DHT22;1399;47.072;15.452;2023-05-29T04:21:46;16.60;66.00
2783;DHT22;1399;47.072;15.452;2023-05-29T04:24:14;16.60;65.80
2783;DHT22;1399;47.072;15.452;2023-05-29T04:26:40;16.70;65.90
2783;DHT22;1399;47.072;15.452;2023-05-29T04:29:08;16.70;65.70
2783;DHT22;1399;47.072;15.452;2023-05-29T04:31:34;16.70;65.70
2783;DHT22;1399;47.072;15.452;2023-05-29T04:34:02;16.80;65.60
2783;DHT22;1399;47.072;15.452;2023-05-29T04:36:30;16.80;65.70
2783;DHT22;1399;47.072;15.452;2023-05-29T04:38:58;16.80;65.70
2783;DHT22;1399;47.072;15.452;2023-05-29T04:41:25;16.90;65.90
2783;DHT22;1399;47.072;15.452;2023-05-29T04:43:55;16.90;65.90
2783;DHT22;1399;47.072;15.452;2023-05-29T04:46:22;16.90;65.80
2783;DHT22;1399;47.072;15.452;2023-05-29T04:48:50;17.00;65.90
2783;DHT22;1399;47.072;15.452;2023-05-29T04:51:23;17.00;65.90
2783;DHT22;1399;47.072;15.452;2023-05-29T04:53:50;17.00;65.90
2783;DHT22;1399;47.072;15.452;2023-05-29T04:56:17;17.10;66.00
2783;DHT22;1399;47.072;15.452;2023-05-29T04:58:44;17.10;66.00
2783;DHT22;1399;47.072;15.452;2023-05-29T05:01:10;17.20;66.10
2783;DHT22;1399;47.072;15.452;2023-05-29T05:03:40;17.20;66.10
2783;DHT22;1399;47.072;15.452;2023-05-29T05:06:06;17.30;66.30
2783;DHT22;1399;47.072;15.452;2023-05-29T05:08:33;17.30;66.10
2783;DHT22;1399;47.072;15.452;2023-05-29T05:11:00;17.40;66.10
2783;DHT22;1399;47.072;15.452;2023-05-29T05:13:26;17.40;65.90
2783;DHT22;1399;47.072;15.452;2023-05-29T05:15:52;17.50;65.80
2783;DHT22;1399;47.072;15.452;2023-05-29T05:18:18;17.50;65.60
2783;DHT22;1399;47.072;15.452;2023-05-29T05:20:44;17.50;65.60
2783;DHT22;1399;47.072;15.452;2023-05-29T05:23:09;17.60;65.60
2783;DHT22;1399;47.072;15.452;2023-05-29T05:25:36;17.70;65.60
2783;DHT22;1399;47.072;15.452;2023-05-29T05:28:02;17.70;65.50
2783;DHT22;1399;47.072;15.452;2023-05-29T05:30:29;17.80;65.60
2783;DHT22;1399;47.072;15.452;2023-05-29T05:32:55;17.80;65.40
2783;DHT22;1399;47.072;15.452;2023-05-29T05:35:21;17.90;65.30
2783;DHT22;1399;47.072;15.452;2023-05-29T05:37:47;17.90;65.20
2783;DHT22;1399;47.072;15.452;2023-05-29T05:40:13;18.00;65.10
2783;DHT22;1399;47.072;15.452;2023-05-29T05:42:38;18.00;64.80
2783;DHT22;1399;47.072;15.452;2023-05-29T05:45:05;18.10;64.70
2783;DHT22;1399;47.072;15.452;2023-05-29T05:47:34;18.10;64.50
2783;DHT22;1399;47.072;15.452;2023-05-29T05:50:00;18.20;64.50
2783;DHT22;1399;47.072;15.452;2023-05-29T05:52:26;18.30;64.40
2783;DHT22;1399;47.072;15.452;2023-05-29T05:54:55;18.30;64.70
2783;DHT22;1399;47.072;15.452;2023-05-29T05:57:21;18.40;64.10
2783;DHT22;1399;47.072;15.452;2023-05-29T05:59:47;18.50;63.80
2783;DHT22;1399;47.072;15.452;2023-05-29T06:02:13;18.60;63.60
2783;DHT22;1399;47.072;15.452;2023-05-29T06:04:39;18.70;63.40
2783;DHT22;1399;47.072;15.452;2023-05-29T06:07:05;18.80;63.10
2783;DHT22;1399;47.072;15.452;2023-05-29T06:09:31;19.00;62.80
2783;DHT22;1399;47.072;15.452;2023-05-29T06:11:57;19.20;62.30
2783;DHT22;1399;47.072;15.452;2023-05-29T06:14:24;19.30;61.90
2783;DHT22;1399;47.072;15.452;2023-05-29T06:16:50;19.40;61.60
2783;DHT22;1399;47.072;15.452;2023-05-29T06:19:16;19.50;61.30
2783;DHT22;1399;47.072;15.452;2023-05-29T06:21:42;19.50;60.90
2783;DHT22;1399;47.072;15.452;2023-05-29T06:24:07;19.60;60.50
2783;DHT22;1399;47.072;15.452;2023-05-29T06:26:33;19.70;60.00
2783;DHT22;1399;47.072;15.452;2023-05-29T06:28:59;20.00;59.60
2783;DHT22;1399;47.072;15.452;2023-05-29T06:31:25;20.70;58.70
2783;DHT22;1399;47.072;15.452;2023-05-29T06:33:51;21.90;56.50
2783;DHT22;1399;47.072;15.452;2023-05-29T06:36:16;23.00;54.20
2783;DHT22;1399;47.072;15.452;2023-05-29T06:38:50;24.10;52.20
2783;DHT22;1399;47.072;15.452;2023-05-29T06:41:16;24.90;50.40
2783;DHT22;1399;47.072;15.452;2023-05-29T06:43:42;25.60;48.80
2783;DHT22;1399;47.072;15.452;2023-05-29T06:46:08;26.10;47.60
2783;DHT22;1399;47.072;15.452;2023-05-29T06:48:34;26.50;46.60
2783;DHT22;1399;47.072;15.452;2023-05-29T06:51:00;26.90;45.90
2783;DHT22;1399;47.072;15.452;2023-05-29T06:53:26;27.10;45.30
2783;DHT22;1399;47.072;15.452;2023-05-29T06:55:53;27.30;44.90
2783;DHT22;1399;47.072;15.452;2023-05-29T06:58:18;27.30;44.70
2783;DHT22;1399;47.072;15.452;2023-05-29T07:00:44;27.30;44.50
2783;DHT22;1399;47.072;15.452;2023-05-29T07:03:10;27.20;44.50
2783;DHT22;1399;47.072;15.452;2023-05-29T07:05:36;27.00;44.60
2783;DHT22;1399;47.072;15.452;2023-05-29T07:08:01;26.80;45.00
2783;DHT22;1399;47.072;15.452;2023-05-29T07:10:27;26.50;45.40
2783;DHT22;1399;47.072;15.452;2023-05-29T07:12:53;26.20;45.90
2783;DHT22;1399;47.072;15.452;2023-05-29T07:15:18;25.90;46.40
2783;DHT22;1399;47.072;15.452;2023-05-29T07:17:44;25.70;46.80
2783;DHT22;1399;47.072;15.452;2023-05-29T07:20:10;25.50;47.30
2783;DHT22;1399;47.072;15.452;2023-05-29T07:22:36;25.30;47.70
2783;DHT22;1399;47.072;15.452;2023-05-29T07:25:03;25.10;48.10
2783;DHT22;1399;47.072;15.452;2023-05-29T07:27:29;25.00;48.50
2783;DHT22;1399;47.072;15.452;2023-05-29T07:29:54;24.90;48.80
2783;DHT22;1399;47.072;15.452;2023-05-29T07:32:20;24.70;49.10
2783;DHT22;1399;47.072;15.452;2023-05-29T07:34:47;24.60;49.50
2783;DHT22;1399;47.072;15.452;2023-05-29T07:37:15;24.40;49.70
2783;DHT22;1399;47.072;15.452;2023-05-29T07:39:41;24.30;50.10
2783;DHT22;1399;47.072;15.452;2023-05-29T07:42:08;24.10;50.40
2783;DHT22;1399;47.072;15.452;2023-05-29T07:44:35;23.90;50.50
2783;DHT22;1399;47.072;15.452;2023-05-29T07:47:01;23.80;50.90
2783;DHT22;1399;47.072;15.452;2023-05-29T07:49:26;23.70;51.10
2783;DHT22;1399;47.072;15.452;2023-05-29T07:51:53;23.60;51.30
2783;DHT22;1399;47.072;15.452;2023-05-29T07:54:18;23.50;51.40
2783;DHT22;1399;47.072;15.452;2023-05-29T07:56:46;23.40;51.50
2783;DHT22;1399;47.072;15.452;2023-05-29T07:59:12;23.30;51.60
2783;DHT22;1399;47.072;15.452;2023-05-29T08:01:38;23.20;51.60
2783;DHT22;1399;47.072;15.452;2023-05-29T08:04:05;23.10;51.70
2783;DHT22;1399;47.072;15.452;2023-05-29T08:06:30;23.10;51.80
2783;DHT22;1399;47.072;15.452;2023-05-29T08:08:59;23.00;51.80
2783;DHT22;1399;47.072;15.452;2023-05-29T08:11:25;23.00;51.70
2783;DHT22;1399;47.072;15.452;2023-05-29T08:13:51;22.90;51.60
2783;DHT22;1399;47.072;15.452;2023-05-29T08:16:16;22.90;51.60
2783;DHT22;1399;47.072;15.452;2023-05-29T08:18:43;22.90;51.60
2783;DHT22;1399;47.072;15.452;2023-05-29T08:21:09;22.80;51.50
2783;DHT22;1399;47.072;15.452;2023-05-29T08:23:35;22.90;51.60
2783;DHT22;1399;47.072;15.452;2023-05-29T08:26:02;22.80;51.50
2783;DHT22;1399;47.072;15.452;2023-05-29T08:28:30;22.80;51.30
2783;DHT22;1399;47.072;15.452;2023-05-29T08:30:56;22.80;51.20
2783;DHT22;1399;47.072;15.452;2023-05-29T08:33:22;22.80;51.20
2783;DHT22;1399;47.072;15.452;2023-05-29T08:35:48;22.80;51.10
2783;DHT22;1399;47.072;15.452;2023-05-29T08:38:13;22.80;51.00
2783;DHT22;1399;47.072;15.452;2023-05-29T08:40:40;22.80;51.00
2783;DHT22;1399;47.072;15.452;2023-05-29T08:43:16;22.80;51.00
2783;DHT22;1399;47.072;15.452;2023-05-29T08:45:45;22.80;51.00
2783;DHT22;1399;47.072;15.452;2023-05-29T08:48:11;22.80;51.00
2783;DHT22;1399;47.072;15.452;2023-05-29T08:50:47;22.80;51.00
2783;DHT22;1399;47.072;15.452;2023-05-29T08:53:13;22.90;51.00
2783;DHT22;1399;47.072;15.452;2023-05-29T08:55:39;22.90;51.00
2783;DHT22;1399;47.072;15.452;2023-05-29T08:58:06;22.80;50.90
2783;DHT22;1399;47.072;15.452;2023-05-29T09:00:35;22.80;51.00
2783;DHT22;1399;47.072;15.452;2023-05-29T09:03:01;22.80;51.00
2783;DHT22;1399;47.072;15.452;2023-05-29T09:05:27;22.80;51.00
2783;DHT22;1399;47.072;15.452;2023-05-29T09:07:53;22.80;50.90
2783;DHT22;1399;47.072;15.452;2023-05-29T09:10:19;22.90;50.90
2783;DHT22;1399;47.072;15.452;2023-05-29T09:12:46;22.90;50.90
2783;DHT22;1399;47.072;15.452;2023-05-29T09:15:20;22.90;50.80
2783;DHT22;1399;47.072;15.452;2023-05-29T09:20:18;22.90;50.70
2783;DHT22;1399;47.072;15.452;2023-05-29T09:25:22;22.90;50.60
2783;DHT22;1399;47.072;15.452;2023-05-29T09:27:51;22.90;50.60
2783;DHT22;1399;47.072;15.452;2023-05-29T09:33:00;22.90;50.60
2783;DHT22;1399;47.072;15.452;2023-05-29T09:38:00;22.90;50.40
2783;DHT22;1399;47.072;15.452;2023-05-29T09:40:26;22.90;50.40
2783;DHT22;1399;47.072;15.452;2023-05-29T09:42:52;22.90;50.50
2783;DHT22;1399;47.072;15.452;2023-05-29T09:45:18;22.90;50.60
2783;DHT22;1399;47.072;15.452;2023-05-29T09:47:44;23.00;50.60
2783;DHT22;1399;47.072;15.452;2023-05-29T09:50:20;23.00;50.60
2783;DHT22;1399;47.072;15.452;2023-05-29T09:52:46;22.90;50.70
2783;DHT22;1399;47.072;15.452;2023-05-29T09:55:14;22.90;50.30
2783;DHT22;1399;47.072;15.452;2023-05-29T09:57:46;22.90;50.30
2783;DHT22;1399;47.072;15.452;2023-05-29T10:00:12;23.00;50.30
2783;DHT22;1399;47.072;15.452;2023-05-29T10:02:39;23.00;50.30
2783;DHT22;1399;47.072;15.452;2023-05-29T10:05:06;22.90;50.30
2783;DHT22;1399;47.072;15.452;2023-05-29T10:07:37;23.00;50.30
2783;DHT22;1399;47.072;15.452;2023-05-29T10:10:04;22.90;50.30
2783;DHT22;1399;47.072;15.452;2023-05-29T10:12:36;22.90;50.30
2783;DHT22;1399;47.072;15.452;2023-05-29T10:15:06;22.90;50.20
2783;DHT22;1399;47.072;15.452;2023-05-29T10:17:38;23.00;50.20
2783;DHT22;1399;47.072;15.452;2023-05-29T10:20:06;22.90;50.00
2783;DHT22;1399;47.072;15.452;2023-05-29T10:22:39;22.90;49.90
2783;DHT22;1399;47.072;15.452;2023-05-29T10:25:08;22.90;50.00
2783;DHT22;1399;47.072;15.452;2023-05-29T10:27:35;22.90;50.10
2783;DHT22;1399;47.072;15.452;2023-05-29T10:36:14;22.90;50.10
2783;DHT22;1399;47.072;15.452;2023-05-29T10:38:45;22.90;50.10
2783;DHT22;1399;47.072;15.452;2023-05-29T10:43:57;23.00;50.00
2783;DHT22;1399;47.072;15.452;2023-05-29T10:49:16;23.10;49.80
2783;DHT22;1399;47.072;15.452;2023-05-29T10:51:42;23.10;49.70
2783;DHT22;1399;47.072;15.452;2023-05-29T10:54:09;23.10;49.70
2783;DHT22;1399;47.072;15.452;2023-05-29T10:56:36;23.10;49.80
2783;DHT22;1399;47.072;15.452;2023-05-29T10:59:02;23.10;49.80
2783;DHT22;1399;47.072;15.452;2023-05-29T11:01:31;23.00;49.80
2783;DHT22;1399;47.072;15.452;2023-05-29T11:06:45;23.00;49.80
2783;DHT22;1399;47.072;15.452;2023-05-29T11:09:31;23.00;49.80
2783;DHT22;1399;47.072;15.452;2023-05-29T11:12:22;23.00;49.90
2783;DHT22;1399;47.072;15.452;2023-05-29T11:15:07;23.00;49.90
2783;DHT22;1399;47.072;15.452;2023-05-29T11:20:16;23.00;49.80
2783;DHT22;1399;47.072;15.452;2023-05-29T11:25:14;23.10;49.80
2783;DHT22;1399;47.072;15.452;2023-05-29T11:27:43;23.00;49.70
2783;DHT22;1399;47.072;15.452;2023-05-29T11:30:10;23.10;50.00
2783;DHT22;1399;47.072;15.452;2023-05-29T11:32:39;23.00;50.00
2783;DHT22;1399;47.072;15.452;2023-05-29T11:35:10;23.00;50.00
2783;DHT22;1399;47.072;15.452;2023-05-29T11:37:39;23.00;49.90
2783;DHT22;1399;47.072;15.452;2023-05-29T11:40:08;23.00;49.90
2783;DHT22;1399;47.072;15.452;2023-05-29T11:42:44;23.00;49.50
2783;DHT22;1399;47.072;15.452;2023-05-29T11:47:55;23.00;49.30
2783;DHT22;1399;47.072;15.452;2023-05-29T11:50:23;22.90;49.40
2783;DHT22;1399;47.072;15.452;2023-05-29T11:52:48;23.00;49.40
2783;DHT22;1399;47.072;15.452;2023-05-29T11:55:14;22.90;49.30
2783;DHT22;1399;47.072;15.452;2023-05-29T11:57:40;23.00;49.50
2783;DHT22;1399;47.072;15.452;2023-05-29T12:00:07;22.90;49.50
2783;DHT22;1399;47.072;15.452;2023-05-29T12:02:36;22.90;49.30
2783;DHT22;1399;47.072;15.452;2023-05-29T12:05:05;22.90;49.20
2783;DHT22;1399;47.072;15.452;2023-05-29T12:07:35;22.90;49.20
2783;DHT22;1399;47.072;15.452;2023-05-29T12:10:14;23.00;48.90
2783;DHT22;1399;47.072;15.452;2023-05-29T12:12:41;22.90;48.30
2783;DHT22;1399;47.072;15.452;2023-05-29T12:15:07;22.90;48.10
2783;DHT22;1399;47.072;15.452;2023-05-29T12:17:34;22.90;47.90
2783;DHT22;1399;47.072;15.452;2023-05-29T12:20:03;22.90;47.80
2783;DHT22;1399;47.072;15.452;2023-05-29T12:22:37;22.90;47.90
2783;DHT22;1399;47.072;15.452;2023-05-29T12:25:10;23.00;47.80
2783;DHT22;1399;47.072;15.452;2023-05-29T12:27:44;23.00;47.70
2783;DHT22;1399;47.072;15.452;2023-05-29T12:30:12;23.00;47.50
2783;DHT22;1399;47.072;15.452;2023-05-29T12:32:44;23.00;47.60
2783;DHT22;1399;47.072;15.452;2023-05-29T12:35:15;23.00;47.10
2783;DHT22;1399;47.072;15.452;2023-05-29T12:37:45;23.00;46.60
2783;DHT22;1399;47.072;15.452;2023-05-29T12:40:20;23.10;46.50
2783;DHT22;1399;47.072;15.452;2023-05-29T12:42:47;23.10;46.30
2783;DHT22;1399;47.072;15.452;2023-05-29T12:45:14;23.20;46.40
2783;DHT22;1399;47.072;15.452;2023-05-29T12:53:12;23.10;46.10
2783;DHT22;1399;47.072;15.452;2023-05-29T12:55:41;23.10;45.60
2783;DHT22;1399;47.072;15.452;2023-05-29T13:00:34;23.00;45.30
2783;DHT22;1399;47.072;15.452;2023-05-29T13:03:00;23.00;45.40
2783;DHT22;1399;47.072;15.452;2023-05-29T13:05:27;23.00;45.40
2783;DHT22;1399;47.072;15.452;2023-05-29T13:07:53;23.00;45.60
2783;DHT22;1399;47.072;15.452;2023-05-29T13:10:20;23.00;45.90
2783;DHT22;1399;47.072;15.452;2023-05-29T13:12:46;22.90;45.90
2783;DHT22;1399;47.072;15.452;2023-05-29T13:15:14;23.00;45.60
2783;DHT22;1399;47.072;15.452;2023-05-29T13:17:40;22.90;45.40
2783;DHT22;1399;47.072;15.452;2023-05-29T13:20:10;22.90;45.30
2783;DHT22;1399;47.072;15.452;2023-05-29T13:22:39;22.90;45.40
2783;DHT22;1399;47.072;15.452;2023-05-29T13:25:05;22.80;45.20
2783;DHT22;1399;47.072;15.452;2023-05-29T13:27:35;22.90;45.00
2783;DHT22;1399;47.072;15.452;2023-05-29T13:30:03;22.80;44.90
2783;DHT22;1399;47.072;15.452;2023-05-29T13:32:29;22.90;44.90
2783;DHT22;1399;47.072;15.452;2023-05-29T13:34:55;22.80;44.70
2783;DHT22;1399;47.072;15.452;2023-05-29T13:37:21;22.80;44.80
2783;DHT22;1399;47.072;15.452;2023-05-29T13:39:46;22.90;44.90
2783;DHT22;1399;47.072;15.452;2023-05-29T13:42:12;22.90;44.90
2783;DHT22;1399;47.072;15.452;2023-05-29T13:44:38;22.90;44.90
2783;DHT22;1399;47.072;15.452;2023-05-29T13:47:06;22.80;44.80
2783;DHT22;1399;47.072;15.452;2023-05-29T13:49:32;22.80;44.70
2783;DHT22;1399;47.072;15.452;2023-05-29T13:51:57;22.80;44.40
2783;DHT22;1399;47.072;15.452;2023-05-29T13:54:23;22.80;44.30
2783;DHT22;1399;47.072;15.452;2023-05-29T13:56:49;22.80;43.90
2783;DHT22;1399;47.072;15.452;2023-05-29T13:59:15;22.90;43.80
2783;DHT22;1399;47.072;15.452;2023-05-29T14:01:40;22.90;43.50
2783;DHT22;1399;47.072;15.452;2023-05-29T14:04:06;22.90;43.40
2783;DHT22;1399;47.072;15.452;2023-05-29T14:06:33;22.90;43.50
2783;DHT22;1399;47.072;15.452;2023-05-29T14:08:59;22.80;43.90
2783;DHT22;1399;47.072;15.452;2023-05-29T14:11:25;22.80;44.00
2783;DHT22;1399;47.072;15.452;2023-05-29T14:13:52;22.80;43.90
2783;DHT22;1399;47.072;15.452;2023-05-29T14:16:18;22.80;43.80
2783;DHT22;1399;47.072;15.452;2023-05-29T14:18:44;22.80;43.80
2783;DHT22;1399;47.072;15.452;2023-05-29T14:21:09;22.80;43.50
2783;DHT22;1399;47.072;15.452;2023-05-29T14:23:37;22.80;43.20
2783;DHT22;1399;47.072;15.452;2023-05-29T14:26:03;22.80;43.20
2783;DHT22;1399;47.072;15.452;2023-05-29T14:28:29;22.80;43.10
2783;DHT22;1399;47.072;15.452;2023-05-29T14:30:55;22.90;43.30
2783;DHT22;1399;47.072;15.452;2023-05-29T14:33:20;22.90;43.50
2783;DHT22;1399;47.072;15.452;2023-05-29T14:35:46;22.90;43.60
2783;DHT22;1399;47.072;15.452;2023-05-29T14:38:12;22.80;44.00
2783;DHT22;1399;47.072;15.452;2023-05-29T14:40:37;22.80;44.40
2783;DHT22;1399;47.072;15.452;2023-05-29T14:43:04;22.90;44.60
2783;DHT22;1399;47.072;15.452;2023-05-29T14:45:30;22.80;44.70
2783;DHT22;1399;47.072;15.452;2023-05-29T14:47:55;22.80;45.10
2783;DHT22;1399;47.072;15.452;2023-05-29T14:50:21;22.70;45.20
2783;DHT22;1399;47.072;15.452;2023-05-29T14:52:47;22.70;45.40
2783;DHT22;1399;47.072;15.452;2023-05-29T14:55:13;22.60;45.30
2783;DHT22;1399;47.072;15.452;2023-05-29T14:57:41;22.60;45.30
2783;DHT22;1399;47.072;15.452;2023-05-29T15:00:07;22.60;45.30
2783;DHT22;1399;47.072;15.452;2023-05-29T15:02:33;22.60;45.10
2783;DHT22;1399;47.072;15.452;2023-05-29T15:04:59;22.50;44.80
2783;DHT22;1399;47.072;15.452;2023-05-29T15:07:25;22.60;44.80
2783;DHT22;1399;47.072;15.452;2023-05-29T15:09:51;22.50;44.70
2783;DHT22;1399;47.072;15.452;2023-05-29T15:12:17;22.50;44.40
2783;DHT22;1399;47.072;15.452;2023-05-29T15:14:43;22.50;44.40
2783;DHT22;1399;47.072;15.452;2023-05-29T15:17:09;22.50;44.20
2783;DHT22;1399;47.072;15.452;2023-05-29T15:19:34;22.50;44.00
2783;DHT22;1399;47.072;15.452;2023-05-29T15:22:00;22.50;43.90
2783;DHT22;1399;47.072;15.452;2023-05-29T15:24:26;22.50;43.50
2783;DHT22;1399;47.072;15.452;2023-05-29T15:26:51;22.60;43.30
2783;DHT22;1399;47.072;15.452;2023-05-29T15:29:17;22.50;43.00
2783;DHT22;1399;47.072;15.452;2023-05-29T15:31:43;22.50;42.80
2783;DHT22;1399;47.072;15.452;2023-05-29T15:34:09;22.50;42.60
2783;DHT22;1399;47.072;15.452;2023-05-29T15:36:34;22.50;42.50
2783;DHT22;1399;47.072;15.452;2023-05-29T15:39:04;22.50;42.40
2783;DHT22;1399;47.072;15.452;2023-05-29T15:41:31;22.50;42.30
2783;DHT22;1399;47.072;15.452;2023-05-29T15:43:57;22.40;42.30
2783;DHT22;1399;47.072;15.452;2023-05-29T15:46:27;22.40;42.20
2783;DHT22;1399;47.072;15.452;2023-05-29T15:48:54;22.30;41.90
2783;DHT22;1399;47.072;15.452;2023-05-29T15:51:19;22.30;41.90
2783;DHT22;1399;47.072;15.452;2023-05-29T15:53:45;22.30;41.80
2783;DHT22;1399;47.072;15.452;2023-05-29T15:56:11;22.30;41.80
2783;DHT22;1399;47.072;15.452;2023-05-29T15:58:37;22.30;42.30
2783;DHT22;1399;47.072;15.452;2023-05-29T16:01:03;22.20;41.60
2783;DHT22;1399;47.072;15.452;2023-05-29T16:03:28;22.20;41.80
2783;DHT22;1399;47.072;15.452;2023-05-29T16:05:54;22.20;41.60
2783;DHT22;1399;47.072;15.452;2023-05-29T16:08:20;22.20;41.70
2783;DHT22;1399;47.072;15.452;2023-05-29T16:10:46;22.30;42.00
2783;DHT22;1399;47.072;15.452;2023-05-29T16:13:12;22.30;42.10
2783;DHT22;1399;47.072;15.452;2023-05-29T16:15:38;22.30;42.40
2783;DHT22;1399;47.072;15.452;2023-05-29T16:18:04;22.30;42.90
2783;DHT22;1399;47.072;15.452;2023-05-29T16:20:30;22.20;42.60
2783;DHT22;1399;47.072;15.452;2023-05-29T16:22:56;22.20;42.30
2783;DHT22;1399;47.072;15.452;2023-05-29T16:25:22;22.10;42.10
2783;DHT22;1399;47.072;15.452;2023-05-29T16:27:48;22.10;41.90
2783;DHT22;1399;47.072;15.452;2023-05-29T16:30:14;22.10;41.90
2783;DHT22;1399;47.072;15.452;2023-05-29T16:32:40;22.10;41.90
2783;DHT22;1399;47.072;15.452;2023-05-29T16:35:06;22.10;41.90
2783;DHT22;1399;47.072;15.452;2023-05-29T16:37:32;22.00;41.80